Crab Orchard, Tennessee
Current Conditions -  °F | °C
As of 6:53 AM on Wednesday 26 Nov 2014 (Local Time) from KCSV Reporting Station
Clear Clear  
Wind Chill: 28°   Ceiling: Unl
Heat Index: 33°   Visibility: 10mi
Dew Point: 26°   Wind: 6mph
Humidity: 75%   Direction: 300°WNW
Pressure: 30.06"   Gusts: NA
Location:  35.91°N, 84.88°W
Report Text: KCSV 261253Z AUTO 30005KT 10SM CLR 01/M03 A3006 RMK AO2 SLP184 T00061033
Loading
Personal Weather Stations






























Interactive Weather Map New forecast layout! Learn more

10-Day Weather Forecast

Advertisements
Track Severe Weather on mobile